sensor_id;sensor_type;location;lat;lon;timestamp;P1;durP1;ratioP1;P2;durP2;ratioP2
9914;SDS011;4996;48.746;9.174;2023-07-24T00:01:11;7.97;;;5.40;;
9914;SDS011;4996;48.746;9.174;2023-07-24T00:03:36;9.37;;;6.20;;
9914;SDS011;4996;48.746;9.174;2023-07-24T00:06:02;8.03;;;5.53;;
9914;SDS011;4996;48.746;9.174;2023-07-24T00:08:27;9.50;;;6.10;;
9914;SDS011;4996;48.746;9.174;2023-07-24T00:10:53;8.87;;;5.60;;
9914;SDS011;4996;48.746;9.174;2023-07-24T00:13:19;11.00;;;6.27;;
9914;SDS011;4996;48.746;9.174;2023-07-24T00:15:44;9.00;;;6.03;;
9914;SDS011;4996;48.746;9.174;2023-07-24T00:18:10;11.53;;;6.17;;
9914;SDS011;4996;48.746;9.174;2023-07-24T00:20:35;10.60;;;5.67;;
9914;SDS011;4996;48.746;9.174;2023-07-24T00:23:01;9.40;;;6.20;;
9914;SDS011;4996;48.746;9.174;2023-07-24T00:25:26;9.50;;;5.70;;
9914;SDS011;4996;48.746;9.174;2023-07-24T00:27:52;11.90;;;6.97;;
9914;SDS011;4996;48.746;9.174;2023-07-24T00:30:18;10.27;;;6.53;;
9914;SDS011;4996;48.746;9.174;2023-07-24T00:32:44;10.87;;;5.83;;
9914;SDS011;4996;48.746;9.174;2023-07-24T00:35:09;9.77;;;6.50;;
9914;SDS011;4996;48.746;9.174;2023-07-24T00:37:35;11.23;;;5.90;;
9914;SDS011;4996;48.746;9.174;2023-07-24T00:40:01;10.07;;;5.90;;
9914;SDS011;4996;48.746;9.174;2023-07-24T00:42:27;9.87;;;6.53;;
9914;SDS011;4996;48.746;9.174;2023-07-24T00:44:53;8.47;;;5.47;;
9914;SDS011;4996;48.746;9.174;2023-07-24T00:47:18;10.63;;;5.93;;
9914;SDS011;4996;48.746;9.174;2023-07-24T00:49:44;9.87;;;7.07;;
9914;SDS011;4996;48.746;9.174;2023-07-24T00:52:10;13.07;;;7.40;;
9914;SDS011;4996;48.746;9.174;2023-07-24T00:54:36;9.60;;;5.63;;
9914;SDS011;4996;48.746;9.174;2023-07-24T00:57:03;11.07;;;6.70;;
9914;SDS011;4996;48.746;9.174;2023-07-24T00:59:29;8.73;;;5.90;;
9914;SDS011;4996;48.746;9.174;2023-07-24T01:01:55;9.60;;;5.77;;
9914;SDS011;4996;48.746;9.174;2023-07-24T01:04:20;8.90;;;6.20;;
9914;SDS011;4996;48.746;9.174;2023-07-24T01:06:47;9.53;;;6.57;;
9914;SDS011;4996;48.746;9.174;2023-07-24T01:09:12;10.27;;;5.80;;
9914;SDS011;4996;48.746;9.174;2023-07-24T01:11:46;7.93;;;5.70;;
9914;SDS011;4996;48.746;9.174;2023-07-24T01:17:25;10.57;;;6.70;;
9914;SDS011;4996;48.746;9.174;2023-07-24T01:19:55;9.13;;;5.57;;
9914;SDS011;4996;48.746;9.174;2023-07-24T01:27:56;9.60;;;6.13;;
9914;SDS011;4996;48.746;9.174;2023-07-24T01:30:22;11.67;;;6.33;;
9914;SDS011;4996;48.746;9.174;2023-07-24T01:32:47;11.60;;;6.73;;
9914;SDS011;4996;48.746;9.174;2023-07-24T01:35:14;10.87;;;6.40;;
9914;SDS011;4996;48.746;9.174;2023-07-24T01:37:39;9.20;;;6.37;;
9914;SDS011;4996;48.746;9.174;2023-07-24T01:40:06;12.50;;;5.77;;
9914;SDS011;4996;48.746;9.174;2023-07-24T01:42:33;11.07;;;6.03;;
9914;SDS011;4996;48.746;9.174;2023-07-24T01:44:59;17.03;;;6.60;;
9914;SDS011;4996;48.746;9.174;2023-07-24T01:47:25;11.00;;;6.60;;
9914;SDS011;4996;48.746;9.174;2023-07-24T01:49:50;9.47;;;6.47;;
9914;SDS011;4996;48.746;9.174;2023-07-24T01:52:16;13.43;;;7.07;;
9914;SDS011;4996;48.746;9.174;2023-07-24T01:54:42;9.67;;;5.60;;
9914;SDS011;4996;48.746;9.174;2023-07-24T01:57:08;9.03;;;6.13;;
9914;SDS011;4996;48.746;9.174;2023-07-24T01:59:33;11.53;;;6.23;;
9914;SDS011;4996;48.746;9.174;2023-07-24T02:01:59;9.07;;;6.10;;
9914;SDS011;4996;48.746;9.174;2023-07-24T02:04:24;12.67;;;6.50;;
9914;SDS011;4996;48.746;9.174;2023-07-24T02:06:50;10.53;;;6.00;;
9914;SDS011;4996;48.746;9.174;2023-07-24T02:09:18;10.83;;;6.37;;
9914;SDS011;4996;48.746;9.174;2023-07-24T02:11:43;12.10;;;6.67;;
9914;SDS011;4996;48.746;9.174;2023-07-24T02:14:11;10.83;;;6.33;;
9914;SDS011;4996;48.746;9.174;2023-07-24T02:16:37;8.83;;;5.20;;
9914;SDS011;4996;48.746;9.174;2023-07-24T02:19:02;11.63;;;6.80;;
9914;SDS011;4996;48.746;9.174;2023-07-24T02:21:28;10.80;;;6.00;;
9914;SDS011;4996;48.746;9.174;2023-07-24T02:23:54;12.07;;;6.33;;
9914;SDS011;4996;48.746;9.174;2023-07-24T02:26:19;10.20;;;5.50;;
9914;SDS011;4996;48.746;9.174;2023-07-24T02:28:45;10.07;;;5.67;;
9914;SDS011;4996;48.746;9.174;2023-07-24T02:31:10;10.67;;;5.97;;
9914;SDS011;4996;48.746;9.174;2023-07-24T02:33:36;8.47;;;5.37;;
9914;SDS011;4996;48.746;9.174;2023-07-24T02:36:02;8.33;;;6.10;;
9914;SDS011;4996;48.746;9.174;2023-07-24T02:38:27;8.73;;;5.67;;
9914;SDS011;4996;48.746;9.174;2023-07-24T02:40:53;7.60;;;4.40;;
9914;SDS011;4996;48.746;9.174;2023-07-24T02:43:18;10.20;;;6.80;;
9914;SDS011;4996;48.746;9.174;2023-07-24T02:45:44;10.80;;;6.10;;
9914;SDS011;4996;48.746;9.174;2023-07-24T02:48:09;9.40;;;5.60;;
9914;SDS011;4996;48.746;9.174;2023-07-24T02:50:35;11.67;;;5.67;;
9914;SDS011;4996;48.746;9.174;2023-07-24T02:53:00;12.10;;;6.57;;
9914;SDS011;4996;48.746;9.174;2023-07-24T02:55:26;11.93;;;6.03;;
9914;SDS011;4996;48.746;9.174;2023-07-24T02:57:52;9.10;;;5.57;;
9914;SDS011;4996;48.746;9.174;2023-07-24T03:00:18;12.30;;;7.00;;
9914;SDS011;4996;48.746;9.174;2023-07-24T03:02:43;10.43;;;6.00;;
9914;SDS011;4996;48.746;9.174;2023-07-24T03:05:09;9.50;;;6.07;;
9914;SDS011;4996;48.746;9.174;2023-07-24T03:07:35;11.00;;;6.03;;
9914;SDS011;4996;48.746;9.174;2023-07-24T03:10:00;11.03;;;6.47;;
9914;SDS011;4996;48.746;9.174;2023-07-24T03:12:26;9.80;;;5.53;;
9914;SDS011;4996;48.746;9.174;2023-07-24T03:14:52;10.87;;;5.83;;
9914;SDS011;4996;48.746;9.174;2023-07-24T03:17:18;9.80;;;6.20;;
9914;SDS011;4996;48.746;9.174;2023-07-24T03:19:43;10.50;;;5.60;;
9914;SDS011;4996;48.746;9.174;2023-07-24T03:22:09;9.77;;;5.47;;
9914;SDS011;4996;48.746;9.174;2023-07-24T03:24:34;12.13;;;6.20;;
9914;SDS011;4996;48.746;9.174;2023-07-24T03:27:00;8.90;;;6.00;;
9914;SDS011;4996;48.746;9.174;2023-07-24T03:29:26;12.27;;;6.47;;
9914;SDS011;4996;48.746;9.174;2023-07-24T03:31:52;8.17;;;5.60;;
9914;SDS011;4996;48.746;9.174;2023-07-24T03:34:17;10.43;;;5.70;;
9914;SDS011;4996;48.746;9.174;2023-07-24T03:36:43;12.07;;;6.27;;
9914;SDS011;4996;48.746;9.174;2023-07-24T03:39:09;10.93;;;6.57;;
9914;SDS011;4996;48.746;9.174;2023-07-24T03:41:36;10.17;;;5.80;;
9914;SDS011;4996;48.746;9.174;2023-07-24T03:44:01;7.97;;;5.87;;
9914;SDS011;4996;48.746;9.174;2023-07-24T03:46:27;8.33;;;5.70;;
9914;SDS011;4996;48.746;9.174;2023-07-24T03:48:52;10.80;;;5.33;;
9914;SDS011;4996;48.746;9.174;2023-07-24T03:51:19;11.13;;;6.00;;
9914;SDS011;4996;48.746;9.174;2023-07-24T03:53:45;8.27;;;5.63;;
9914;SDS011;4996;48.746;9.174;2023-07-24T03:56:10;10.20;;;6.53;;
9914;SDS011;4996;48.746;9.174;2023-07-24T03:58:36;10.13;;;6.10;;
9914;SDS011;4996;48.746;9.174;2023-07-24T04:01:03;9.90;;;5.87;;
9914;SDS011;4996;48.746;9.174;2023-07-24T04:03:29;9.63;;;6.37;;
9914;SDS011;4996;48.746;9.174;2023-07-24T04:05:54;9.43;;;5.70;;
9914;SDS011;4996;48.746;9.174;2023-07-24T04:08:20;10.37;;;6.00;;
9914;SDS011;4996;48.746;9.174;2023-07-24T04:10:45;11.13;;;6.70;;
9914;SDS011;4996;48.746;9.174;2023-07-24T04:13:11;10.40;;;5.50;;
9914;SDS011;4996;48.746;9.174;2023-07-24T04:15:36;10.70;;;6.00;;
9914;SDS011;4996;48.746;9.174;2023-07-24T04:18:03;10.00;;;5.63;;
9914;SDS011;4996;48.746;9.174;2023-07-24T04:20:28;10.13;;;5.73;;
9914;SDS011;4996;48.746;9.174;2023-07-24T04:22:54;9.83;;;6.27;;
9914;SDS011;4996;48.746;9.174;2023-07-24T04:25:19;9.27;;;5.70;;
9914;SDS011;4996;48.746;9.174;2023-07-24T04:27:45;8.57;;;5.50;;
9914;SDS011;4996;48.746;9.174;2023-07-24T04:30:11;9.60;;;6.40;;
9914;SDS011;4996;48.746;9.174;2023-07-24T04:32:36;18.13;;;6.43;;
9914;SDS011;4996;48.746;9.174;2023-07-24T04:35:02;11.93;;;6.00;;
9914;SDS011;4996;48.746;9.174;2023-07-24T04:37:28;11.13;;;6.30;;
9914;SDS011;4996;48.746;9.174;2023-07-24T04:39:53;12.23;;;6.20;;
9914;SDS011;4996;48.746;9.174;2023-07-24T04:42:19;8.97;;;5.43;;
9914;SDS011;4996;48.746;9.174;2023-07-24T04:44:44;10.70;;;5.43;;
9914;SDS011;4996;48.746;9.174;2023-07-24T04:47:10;10.23;;;5.67;;
9914;SDS011;4996;48.746;9.174;2023-07-24T04:49:35;9.83;;;5.80;;
9914;SDS011;4996;48.746;9.174;2023-07-24T04:52:01;9.27;;;5.77;;
9914;SDS011;4996;48.746;9.174;2023-07-24T04:54:28;8.23;;;5.60;;
9914;SDS011;4996;48.746;9.174;2023-07-24T04:56:53;8.50;;;6.00;;
9914;SDS011;4996;48.746;9.174;2023-07-24T04:59:19;9.87;;;6.40;;
9914;SDS011;4996;48.746;9.174;2023-07-24T05:01:44;10.30;;;6.47;;
9914;SDS011;4996;48.746;9.174;2023-07-24T05:04:10;9.00;;;6.10;;
9914;SDS011;4996;48.746;9.174;2023-07-24T05:06:35;10.87;;;5.97;;
9914;SDS011;4996;48.746;9.174;2023-07-24T05:09:02;15.27;;;5.50;;
9914;SDS011;4996;48.746;9.174;2023-07-24T05:11:27;9.90;;;6.30;;
9914;SDS011;4996;48.746;9.174;2023-07-24T05:13:53;8.57;;;5.50;;
9914;SDS011;4996;48.746;9.174;2023-07-24T05:16:18;12.00;;;5.57;;
9914;SDS011;4996;48.746;9.174;2023-07-24T05:18:44;9.27;;;5.93;;
9914;SDS011;4996;48.746;9.174;2023-07-24T05:21:09;12.70;;;6.50;;
9914;SDS011;4996;48.746;9.174;2023-07-24T05:23:35;9.73;;;6.40;;
9914;SDS011;4996;48.746;9.174;2023-07-24T05:26:01;14.53;;;5.70;;
9914;SDS011;4996;48.746;9.174;2023-07-24T05:28:28;10.70;;;6.30;;
9914;SDS011;4996;48.746;9.174;2023-07-24T05:30:55;10.70;;;7.13;;
9914;SDS011;4996;48.746;9.174;2023-07-24T05:33:21;10.10;;;5.60;;
9914;SDS011;4996;48.746;9.174;2023-07-24T05:35:48;9.90;;;6.13;;
9914;SDS011;4996;48.746;9.174;2023-07-24T05:38:14;11.40;;;6.43;;
9914;SDS011;4996;48.746;9.174;2023-07-24T05:40:39;10.77;;;6.70;;
9914;SDS011;4996;48.746;9.174;2023-07-24T05:43:05;10.83;;;6.30;;
9914;SDS011;4996;48.746;9.174;2023-07-24T05:45:30;12.80;;;6.43;;
9914;SDS011;4996;48.746;9.174;2023-07-24T05:47:56;13.00;;;6.90;;
9914;SDS011;4996;48.746;9.174;2023-07-24T05:50:21;12.83;;;6.97;;
9914;SDS011;4996;48.746;9.174;2023-07-24T05:52:47;17.00;;;5.90;;
9914;SDS011;4996;48.746;9.174;2023-07-24T05:55:12;9.57;;;6.10;;
9914;SDS011;4996;48.746;9.174;2023-07-24T05:57:38;8.50;;;5.47;;
9914;SDS011;4996;48.746;9.174;2023-07-24T06:00:04;11.53;;;6.93;;
9914;SDS011;4996;48.746;9.174;2023-07-24T06:02:30;11.57;;;6.43;;
9914;SDS011;4996;48.746;9.174;2023-07-24T06:04:56;12.03;;;7.00;;
9914;SDS011;4996;48.746;9.174;2023-07-24T06:07:21;7.50;;;6.20;;
9914;SDS011;4996;48.746;9.174;2023-07-24T06:09:47;10.60;;;7.10;;
9914;SDS011;4996;48.746;9.174;2023-07-24T06:12:12;17.67;;;7.40;;
9914;SDS011;4996;48.746;9.174;2023-07-24T06:14:38;11.30;;;6.67;;
9914;SDS011;4996;48.746;9.174;2023-07-24T06:17:03;12.53;;;7.40;;
9914;SDS011;4996;48.746;9.174;2023-07-24T06:19:29;17.00;;;7.47;;
9914;SDS011;4996;48.746;9.174;2023-07-24T06:21:55;10.23;;;6.17;;
9914;SDS011;4996;48.746;9.174;2023-07-24T06:24:20;9.10;;;5.90;;
9914;SDS011;4996;48.746;9.174;2023-07-24T06:26:46;9.93;;;6.80;;
9914;SDS011;4996;48.746;9.174;2023-07-24T06:29:12;13.13;;;6.70;;
9914;SDS011;4996;48.746;9.174;2023-07-24T06:31:39;9.93;;;6.40;;
9914;SDS011;4996;48.746;9.174;2023-07-24T06:34:05;11.40;;;7.37;;
9914;SDS011;4996;48.746;9.174;2023-07-24T06:36:30;11.10;;;6.60;;
9914;SDS011;4996;48.746;9.174;2023-07-24T06:38:56;10.60;;;6.77;;
9914;SDS011;4996;48.746;9.174;2023-07-24T06:41:21;12.80;;;6.97;;
9914;SDS011;4996;48.746;9.174;2023-07-24T06:43:48;15.83;;;6.97;;
9914;SDS011;4996;48.746;9.174;2023-07-24T06:46:13;15.70;;;6.70;;
9914;SDS011;4996;48.746;9.174;2023-07-24T06:48:39;16.30;;;7.17;;
9914;SDS011;4996;48.746;9.174;2023-07-24T06:51:04;11.27;;;6.23;;
9914;SDS011;4996;48.746;9.174;2023-07-24T06:53:30;13.27;;;7.80;;
9914;SDS011;4996;48.746;9.174;2023-07-24T06:55:56;8.80;;;6.77;;
9914;SDS011;4996;48.746;9.174;2023-07-24T06:58:21;14.53;;;6.80;;
9914;SDS011;4996;48.746;9.174;2023-07-24T07:00:47;10.20;;;6.50;;
9914;SDS011;4996;48.746;9.174;2023-07-24T07:03:12;10.40;;;6.43;;
9914;SDS011;4996;48.746;9.174;2023-07-24T07:05:38;12.07;;;7.07;;
9914;SDS011;4996;48.746;9.174;2023-07-24T07:08:03;12.80;;;6.93;;
9914;SDS011;4996;48.746;9.174;2023-07-24T07:10:30;17.47;;;7.83;;
9914;SDS011;4996;48.746;9.174;2023-07-24T07:12:56;13.73;;;6.70;;
9914;SDS011;4996;48.746;9.174;2023-07-24T07:15:22;11.33;;;7.30;;
9914;SDS011;4996;48.746;9.174;2023-07-24T07:17:47;12.20;;;7.00;;
9914;SDS011;4996;48.746;9.174;2023-07-24T07:20:13;14.33;;;7.30;;
9914;SDS011;4996;48.746;9.174;2023-07-24T07:22:38;15.00;;;6.90;;
9914;SDS011;4996;48.746;9.174;2023-07-24T07:25:04;12.57;;;7.90;;
9914;SDS011;4996;48.746;9.174;2023-07-24T07:27:30;14.83;;;6.30;;
9914;SDS011;4996;48.746;9.174;2023-07-24T07:29:55;9.40;;;6.50;;
9914;SDS011;4996;48.746;9.174;2023-07-24T07:32:21;11.63;;;6.60;;
9914;SDS011;4996;48.746;9.174;2023-07-24T07:34:46;10.37;;;6.33;;
9914;SDS011;4996;48.746;9.174;2023-07-24T07:37:12;12.10;;;7.20;;
9914;SDS011;4996;48.746;9.174;2023-07-24T07:39:37;16.03;;;11.00;;
9914;SDS011;4996;48.746;9.174;2023-07-24T07:42:03;15.20;;;7.43;;
9914;SDS011;4996;48.746;9.174;2023-07-24T07:44:28;14.73;;;7.23;;
9914;SDS011;4996;48.746;9.174;2023-07-24T07:46:54;14.30;;;7.23;;
9914;SDS011;4996;48.746;9.174;2023-07-24T07:49:19;9.13;;;6.03;;
9914;SDS011;4996;48.746;9.174;2023-07-24T07:51:45;8.90;;;6.47;;
9914;SDS011;4996;48.746;9.174;2023-07-24T07:54:10;11.00;;;6.87;;
9914;SDS011;4996;48.746;9.174;2023-07-24T07:56:36;14.30;;;7.27;;
9914;SDS011;4996;48.746;9.174;2023-07-24T07:59:01;15.40;;;6.80;;
9914;SDS011;4996;48.746;9.174;2023-07-24T08:01:27;9.77;;;6.93;;
9914;SDS011;4996;48.746;9.174;2023-07-24T08:03:52;21.40;;;8.13;;
9914;SDS011;4996;48.746;9.174;2023-07-24T08:06:18;10.33;;;6.83;;
9914;SDS011;4996;48.746;9.174;2023-07-24T08:08:43;11.57;;;7.03;;
9914;SDS011;4996;48.746;9.174;2023-07-24T08:11:09;10.30;;;6.73;;
9914;SDS011;4996;48.746;9.174;2023-07-24T08:13:34;11.20;;;7.17;;
9914;SDS011;4996;48.746;9.174;2023-07-24T08:16:00;11.00;;;7.20;;
9914;SDS011;4996;48.746;9.174;2023-07-24T08:18:28;11.90;;;8.00;;
9914;SDS011;4996;48.746;9.174;2023-07-24T08:20:57;12.60;;;6.70;;
9914;SDS011;4996;48.746;9.174;2023-07-24T08:23:22;11.23;;;7.30;;
9914;SDS011;4996;48.746;9.174;2023-07-24T08:25:54;12.87;;;6.97;;
9914;SDS011;4996;48.746;9.174;2023-07-24T08:28:20;10.67;;;6.70;;
9914;SDS011;4996;48.746;9.174;2023-07-24T08:30:46;9.57;;;6.20;;
9914;SDS011;4996;48.746;9.174;2023-07-24T08:33:21;9.67;;;6.23;;
9914;SDS011;4996;48.746;9.174;2023-07-24T08:35:47;11.60;;;6.27;;
9914;SDS011;4996;48.746;9.174;2023-07-24T08:38:12;11.37;;;6.80;;
9914;SDS011;4996;48.746;9.174;2023-07-24T08:40:38;8.13;;;6.30;;
9914;SDS011;4996;48.746;9.174;2023-07-24T08:43:04;10.50;;;6.57;;
9914;SDS011;4996;48.746;9.174;2023-07-24T08:45:30;11.73;;;6.97;;
9914;SDS011;4996;48.746;9.174;2023-07-24T08:47:56;12.40;;;8.07;;
9914;SDS011;4996;48.746;9.174;2023-07-24T08:50:23;12.90;;;7.90;;
9914;SDS011;4996;48.746;9.174;2023-07-24T08:52:49;13.30;;;7.57;;
9914;SDS011;4996;48.746;9.174;2023-07-24T08:55:15;10.07;;;6.63;;
9914;SDS011;4996;48.746;9.174;2023-07-24T08:57:41;10.60;;;5.80;;
9914;SDS011;4996;48.746;9.174;2023-07-24T09:00:07;10.23;;;7.13;;
9914;SDS011;4996;48.746;9.174;2023-07-24T09:02:33;10.40;;;6.57;;
9914;SDS011;4996;48.746;9.174;2023-07-24T09:05:00;12.27;;;6.67;;
9914;SDS011;4996;48.746;9.174;2023-07-24T09:07:26;9.60;;;6.47;;
9914;SDS011;4996;48.746;9.174;2023-07-24T09:09:51;10.00;;;7.07;;
9914;SDS011;4996;48.746;9.174;2023-07-24T09:12:17;10.60;;;5.80;;
9914;SDS011;4996;48.746;9.174;2023-07-24T09:14:43;14.10;;;6.20;;
9914;SDS011;4996;48.746;9.174;2023-07-24T09:17:10;10.40;;;5.70;;
9914;SDS011;4996;48.746;9.174;2023-07-24T09:19:36;10.13;;;6.20;;
9914;SDS011;4996;48.746;9.174;2023-07-24T09:22:12;8.03;;;5.97;;
9914;SDS011;4996;48.746;9.174;2023-07-24T09:24:49;10.77;;;5.77;;
9914;SDS011;4996;48.746;9.174;2023-07-24T09:27:16;10.30;;;4.80;;
9914;SDS011;4996;48.746;9.174;2023-07-24T09:29:42;7.10;;;5.20;;
9914;SDS011;4996;48.746;9.174;2023-07-24T09:32:07;7.33;;;4.10;;
9914;SDS011;4996;48.746;9.174;2023-07-24T09:34:43;9.13;;;4.87;;
9914;SDS011;4996;48.746;9.174;2023-07-24T09:37:08;7.33;;;4.10;;
9914;SDS011;4996;48.746;9.174;2023-07-24T09:39:34;5.77;;;4.77;;
9914;SDS011;4996;48.746;9.174;2023-07-24T09:42:03;6.00;;;4.30;;
9914;SDS011;4996;48.746;9.174;2023-07-24T09:44:30;7.50;;;4.77;;
9914;SDS011;4996;48.746;9.174;2023-07-24T09:46:56;6.70;;;4.33;;
9914;SDS011;4996;48.746;9.174;2023-07-24T09:49:22;6.77;;;4.80;;
9914;SDS011;4996;48.746;9.174;2023-07-24T09:51:47;6.27;;;4.53;;
9914;SDS011;4996;48.746;9.174;2023-07-24T09:56:48;6.00;;;4.23;;
9914;SDS011;4996;48.746;9.174;2023-07-24T09:59:16;7.30;;;5.10;;
9914;SDS011;4996;48.746;9.174;2023-07-24T10:01:42;5.87;;;4.63;;
9914;SDS011;4996;48.746;9.174;2023-07-24T10:04:08;5.93;;;4.60;;
9914;SDS011;4996;48.746;9.174;2023-07-24T10:06:34;6.57;;;4.60;;
9914;SDS011;4996;48.746;9.174;2023-07-24T10:09:00;10.37;;;6.60;;
9914;SDS011;4996;48.746;9.174;2023-07-24T10:11:27;11.70;;;5.67;;
9914;SDS011;4996;48.746;9.174;2023-07-24T10:13:53;8.03;;;4.70;;
9914;SDS011;4996;48.746;9.174;2023-07-24T10:16:19;7.97;;;5.33;;
9914;SDS011;4996;48.746;9.174;2023-07-24T10:18:45;11.20;;;6.20;;
9914;SDS011;4996;48.746;9.174;2023-07-24T10:21:12;8.60;;;5.63;;
9914;SDS011;4996;48.746;9.174;2023-07-24T10:23:41;6.33;;;4.73;;
9914;SDS011;4996;48.746;9.174;2023-07-24T10:26:08;6.50;;;4.50;;
9914;SDS011;4996;48.746;9.174;2023-07-24T10:28:35;9.00;;;5.73;;
9914;SDS011;4996;48.746;9.174;2023-07-24T10:31:20;7.33;;;5.00;;
9914;SDS011;4996;48.746;9.174;2023-07-24T10:33:54;9.70;;;6.37;;
9914;SDS011;4996;48.746;9.174;2023-07-24T10:36:20;9.00;;;6.10;;
9914;SDS011;4996;48.746;9.174;2023-07-24T10:38:52;9.10;;;5.70;;
9914;SDS011;4996;48.746;9.174;2023-07-24T10:41:18;8.43;;;5.60;;
9914;SDS011;4996;48.746;9.174;2023-07-24T10:43:45;10.33;;;5.50;;
9914;SDS011;4996;48.746;9.174;2023-07-24T10:46:12;13.70;;;5.97;;
9914;SDS011;4996;48.746;9.174;2023-07-24T10:48:42;10.23;;;5.60;;
9914;SDS011;4996;48.746;9.174;2023-07-24T10:51:09;8.57;;;5.70;;
9914;SDS011;4996;48.746;9.174;2023-07-24T10:53:35;13.50;;;5.30;;
9914;SDS011;4996;48.746;9.174;2023-07-24T10:56:02;8.00;;;5.20;;
9914;SDS011;4996;48.746;9.174;2023-07-24T10:58:28;8.10;;;5.70;;
9914;SDS011;4996;48.746;9.174;2023-07-24T11:00:55;9.13;;;6.17;;
9914;SDS011;4996;48.746;9.174;2023-07-24T11:03:21;9.10;;;5.80;;
9914;SDS011;4996;48.746;9.174;2023-07-24T11:05:47;9.90;;;5.73;;
9914;SDS011;4996;48.746;9.174;2023-07-24T11:08:13;9.60;;;5.90;;
9914;SDS011;4996;48.746;9.174;2023-07-24T11:13:13;15.93;;;5.77;;
9914;SDS011;4996;48.746;9.174;2023-07-24T11:15:39;10.80;;;5.47;;
9914;SDS011;4996;48.746;9.174;2023-07-24T11:18:05;11.13;;;6.00;;
9914;SDS011;4996;48.746;9.174;2023-07-24T11:20:33;8.57;;;5.30;;
9914;SDS011;4996;48.746;9.174;2023-07-24T11:23:03;8.33;;;5.73;;
9914;SDS011;4996;48.746;9.174;2023-07-24T11:25:28;11.03;;;5.80;;
9914;SDS011;4996;48.746;9.174;2023-07-24T11:27:54;8.07;;;5.03;;
9914;SDS011;4996;48.746;9.174;2023-07-24T11:30:20;9.77;;;5.50;;
9914;SDS011;4996;48.746;9.174;2023-07-24T11:32:46;9.23;;;5.60;;
9914;SDS011;4996;48.746;9.174;2023-07-24T11:35:13;7.20;;;4.97;;
9914;SDS011;4996;48.746;9.174;2023-07-24T11:37:39;13.43;;;6.80;;
9914;SDS011;4996;48.746;9.174;2023-07-24T11:40:05;11.70;;;6.40;;
9914;SDS011;4996;48.746;9.174;2023-07-24T11:42:39;9.67;;;5.77;;
9914;SDS011;4996;48.746;9.174;2023-07-24T11:45:07;8.87;;;6.53;;
9914;SDS011;4996;48.746;9.174;2023-07-24T11:47:46;8.53;;;6.17;;
9914;SDS011;4996;48.746;9.174;2023-07-24T11:50:13;7.07;;;5.47;;
9914;SDS011;4996;48.746;9.174;2023-07-24T11:52:40;9.50;;;5.30;;
9914;SDS011;4996;48.746;9.174;2023-07-24T11:55:13;8.07;;;5.57;;
9914;SDS011;4996;48.746;9.174;2023-07-24T11:57:40;6.43;;;5.13;;
9914;SDS011;4996;48.746;9.174;2023-07-24T12:00:17;8.60;;;5.40;;
9914;SDS011;4996;48.746;9.174;2023-07-24T12:02:44;12.40;;;6.10;;
9914;SDS011;4996;48.746;9.174;2023-07-24T12:05:09;7.60;;;5.47;;
9914;SDS011;4996;48.746;9.174;2023-07-24T12:07:35;8.17;;;5.43;;
9914;SDS011;4996;48.746;9.174;2023-07-24T12:10:01;8.87;;;5.00;;
9914;SDS011;4996;48.746;9.174;2023-07-24T12:12:39;10.17;;;5.80;;
9914;SDS011;4996;48.746;9.174;2023-07-24T12:15:08;10.30;;;6.17;;
9914;SDS011;4996;48.746;9.174;2023-07-24T12:17:35;8.50;;;5.80;;
9914;SDS011;4996;48.746;9.174;2023-07-24T12:20:00;10.07;;;6.73;;
9914;SDS011;4996;48.746;9.174;2023-07-24T12:22:27;15.03;;;5.93;;
9914;SDS011;4996;48.746;9.174;2023-07-24T12:24:52;6.30;;;5.40;;
9914;SDS011;4996;48.746;9.174;2023-07-24T12:27:18;9.93;;;6.10;;
9914;SDS011;4996;48.746;9.174;2023-07-24T12:29:43;7.67;;;5.67;;
9914;SDS011;4996;48.746;9.174;2023-07-24T12:32:09;10.30;;;6.50;;
9914;SDS011;4996;48.746;9.174;2023-07-24T12:34:34;8.90;;;4.80;;
9914;SDS011;4996;48.746;9.174;2023-07-24T12:37:00;10.37;;;6.10;;
9914;SDS011;4996;48.746;9.174;2023-07-24T12:39:25;10.17;;;6.37;;
9914;SDS011;4996;48.746;9.174;2023-07-24T12:41:51;6.63;;;5.23;;
9914;SDS011;4996;48.746;9.174;2023-07-24T12:44:16;8.70;;;5.57;;
9914;SDS011;4996;48.746;9.174;2023-07-24T12:46:42;8.43;;;6.20;;
9914;SDS011;4996;48.746;9.174;2023-07-24T12:49:07;6.27;;;5.00;;
9914;SDS011;4996;48.746;9.174;2023-07-24T12:51:33;8.43;;;6.03;;
9914;SDS011;4996;48.746;9.174;2023-07-24T12:53:58;7.53;;;5.57;;
9914;SDS011;4996;48.746;9.174;2023-07-24T12:56:24;10.03;;;5.30;;
9914;SDS011;4996;48.746;9.174;2023-07-24T12:58:49;7.20;;;5.33;;
9914;SDS011;4996;48.746;9.174;2023-07-24T13:01:15;8.63;;;4.70;;
9914;SDS011;4996;48.746;9.174;2023-07-24T13:03:40;6.50;;;4.63;;
9914;SDS011;4996;48.746;9.174;2023-07-24T13:06:06;6.10;;;4.80;;
9914;SDS011;4996;48.746;9.174;2023-07-24T13:08:31;9.90;;;5.50;;
9914;SDS011;4996;48.746;9.174;2023-07-24T13:10:57;8.23;;;5.30;;
9914;SDS011;4996;48.746;9.174;2023-07-24T13:13:22;7.20;;;4.53;;
9914;SDS011;4996;48.746;9.174;2023-07-24T13:15:48;7.77;;;4.33;;
9914;SDS011;4996;48.746;9.174;2023-07-24T13:18:16;8.93;;;5.03;;
9914;SDS011;4996;48.746;9.174;2023-07-24T13:20:42;8.43;;;4.40;;
9914;SDS011;4996;48.746;9.174;2023-07-24T13:23:07;7.10;;;5.27;;
9914;SDS011;4996;48.746;9.174;2023-07-24T13:25:33;7.40;;;4.57;;
9914;SDS011;4996;48.746;9.174;2023-07-24T13:27:59;5.77;;;4.43;;
9914;SDS011;4996;48.746;9.174;2023-07-24T13:30:24;8.83;;;5.10;;
9914;SDS011;4996;48.746;9.174;2023-07-24T13:32:50;7.17;;;4.40;;
9914;SDS011;4996;48.746;9.174;2023-07-24T13:35:15;6.50;;;4.37;;
9914;SDS011;4996;48.746;9.174;2023-07-24T13:37:41;5.40;;;4.07;;
9914;SDS011;4996;48.746;9.174;2023-07-24T13:40:07;5.83;;;4.50;;
9914;SDS011;4996;48.746;9.174;2023-07-24T13:42:33;5.30;;;4.30;;
9914;SDS011;4996;48.746;9.174;2023-07-24T13:44:58;7.37;;;4.73;;
9914;SDS011;4996;48.746;9.174;2023-07-24T13:47:24;5.70;;;3.97;;
9914;SDS011;4996;48.746;9.174;2023-07-24T13:49:49;7.33;;;4.83;;
9914;SDS011;4996;48.746;9.174;2023-07-24T13:52:15;5.50;;;4.10;;
9914;SDS011;4996;48.746;9.174;2023-07-24T13:54:40;5.70;;;4.20;;
9914;SDS011;4996;48.746;9.174;2023-07-24T13:57:06;8.50;;;4.87;;
9914;SDS011;4996;48.746;9.174;2023-07-24T13:59:35;6.17;;;3.87;;
9914;SDS011;4996;48.746;9.174;2023-07-24T14:02:03;4.20;;;3.57;;
9914;SDS011;4996;48.746;9.174;2023-07-24T14:04:29;4.67;;;3.80;;
9914;SDS011;4996;48.746;9.174;2023-07-24T14:06:54;6.07;;;4.43;;
9914;SDS011;4996;48.746;9.174;2023-07-24T14:09:20;6.23;;;5.07;;
9914;SDS011;4996;48.746;9.174;2023-07-24T14:11:45;5.00;;;3.97;;
9914;SDS011;4996;48.746;9.174;2023-07-24T14:14:11;6.30;;;3.80;;
9914;SDS011;4996;48.746;9.174;2023-07-24T14:16:36;4.50;;;4.07;;
9914;SDS011;4996;48.746;9.174;2023-07-24T14:19:02;3.60;;;3.17;;
9914;SDS011;4996;48.746;9.174;2023-07-24T14:21:27;11.83;;;3.97;;
9914;SDS011;4996;48.746;9.174;2023-07-24T14:23:53;5.70;;;3.60;;
9914;SDS011;4996;48.746;9.174;2023-07-24T14:26:18;5.23;;;3.80;;
9914;SDS011;4996;48.746;9.174;2023-07-24T14:28:44;5.53;;;3.37;;
9914;SDS011;4996;48.746;9.174;2023-07-24T14:31:10;7.30;;;3.63;;
9914;SDS011;4996;48.746;9.174;2023-07-24T14:33:36;7.03;;;4.47;;
9914;SDS011;4996;48.746;9.174;2023-07-24T14:36:01;8.67;;;3.70;;
9914;SDS011;4996;48.746;9.174;2023-07-24T14:38:27;4.17;;;3.50;;
9914;SDS011;4996;48.746;9.174;2023-07-24T14:40:53;4.30;;;3.37;;
9914;SDS011;4996;48.746;9.174;2023-07-24T14:43:18;4.40;;;2.90;;
9914;SDS011;4996;48.746;9.174;2023-07-24T14:45:44;6.07;;;4.20;;
9914;SDS011;4996;48.746;9.174;2023-07-24T14:48:09;8.87;;;5.97;;
9914;SDS011;4996;48.746;9.174;2023-07-24T14:50:37;5.43;;;3.77;;
9914;SDS011;4996;48.746;9.174;2023-07-24T14:53:03;5.27;;;3.17;;
9914;SDS011;4996;48.746;9.174;2023-07-24T14:55:28;5.17;;;2.87;;
9914;SDS011;4996;48.746;9.174;2023-07-24T14:57:54;5.80;;;3.60;;
9914;SDS011;4996;48.746;9.174;2023-07-24T15:00:19;5.93;;;3.40;;
9914;SDS011;4996;48.746;9.174;2023-07-24T15:02:45;5.87;;;3.93;;
9914;SDS011;4996;48.746;9.174;2023-07-24T15:05:10;4.90;;;3.70;;
9914;SDS011;4996;48.746;9.174;2023-07-24T15:07:36;4.00;;;3.20;;
9914;SDS011;4996;48.746;9.174;2023-07-24T15:10:01;6.30;;;3.90;;
9914;SDS011;4996;48.746;9.174;2023-07-24T15:12:27;3.87;;;2.80;;
9914;SDS011;4996;48.746;9.174;2023-07-24T15:14:53;4.57;;;3.10;;